This is the latest recevied weather packets stored in our database for station/object OM1PU-6. If no packets are shown the sender has not sent any weather packets the latest 10 day(s).
| Time | Temp. | Humidity | Pressure | Rain* | Wind** | Luminosity | Snow |
|---|---|---|---|---|---|---|---|
| 1777321092 | 10° C | 70% | 1031.6 hPa | 0 mm | - | - | - |
| 1777320192 | 10.56° C | 68% | 1031.7 hPa | 0 mm | - | - | - |
| 1777319292 | 10° C | 69% | 1031.5 hPa | 0 mm | - | - | - |
| 1777318392 | 11.11° C | 65% | 1031.7 hPa | 0 mm | - | - | - |
| 1777317493 | 11.11° C | 65% | 1031.3 hPa | 0 mm | - | - | - |
| 1777316592 | 11.67° C | 61% | 1031.3 hPa | 0 mm | - | - | - |
| 1777315693 | 12.78° C | 56% | 1031.6 hPa | 0 mm | - | - | - |
| 1777314792 | 13.33° C | 53% | 1031.4 hPa | 0 mm | - | - | - |
| 1777313894 | 14.44° C | 48% | 1031.3 hPa | 0 mm | - | - | - |
| 1777312993 | 15° C | 47% | 1031 hPa | 0 mm | - | - | - |
| 1777312092 | 16.11° C | 45% | 1031.1 hPa | 0 mm | - | - | - |
| 1777311192 | 16.67° C | 41% | 1030.8 hPa | 0 mm | - | - | - |
| 1777310292 | 17.22° C | 40% | 1031 hPa | 0 mm | - | - | - |
| 1777309392 | 18.33° C | 38% | 1030.9 hPa | 0 mm | - | - | - |
| 1777308492 | 18.33° C | 36% | 1030.9 hPa | 0 mm | - | - | - |
| 1777307593 | 18.89° C | 34% | 1030.9 hPa | 0 mm | - | - | - |
| 1777306693 | 20° C | 33% | 1031 hPa | 0 mm | - | - | - |
| 1777305792 | 18.89° C | 34% | 1031.2 hPa | 0 mm | - | - | - |
| 1777304893 | 20° C | 32% | 1031.4 hPa | 0 mm | - | - | - |
| 1777303992 | 20.56° C | 33% | 1031.4 hPa | 0 mm | - | - | - |
| 1777303093 | 21.11° C | 31% | 1031.6 hPa | 0 mm | - | - | - |
| 1777302192 | 21.11° C | 30% | 1031.7 hPa | 0 mm | - | - | - |
| 1777301292 | 20.56° C | 30% | 1031.8 hPa | 0 mm | - | - | - |
| 1777300392 | 20.56° C | 30% | 1031.8 hPa | 0 mm | - | - | - |
| 1777299493 | 20° C | 33% | 1031.9 hPa | 0 mm | - | - | - |
* Rain latest 24 hours (hover to see other rain measurements)
** Current wind speed in m/s (hover to see current wind gust speed)